Time;durP1;ratioP1;P1;durP2;ratioP2;P2;SDS_P1;SDS_P2;PMS_P1;PMS_P2;Temp;Humidity;BMP_temperature;BMP_pressure;BME280_temperature;BME280_humidity;BME280_pressure;Samples;Min_cycle;Max_cycle;Signal;HPM_P1;HPM_P2
2022/02/02 00:01:04;;;;;;;;;16.75;14.00;;;;;12.62;64.99;101847.84;5039964;28;46217;-47
2022/02/02 00:03:29;;;;;;;;;13.00;11.75;;;;;12.63;64.78;101855.75;5040174;28;45239;-45
2022/02/02 00:06:07;;;;;;;;;13.50;11.00;;;;;12.65;64.93;101858.38;5040417;28;45249;-45
2022/02/02 00:08:45;;;;;;;;;14.75;13.75;;;;;12.64;64.74;101843.41;5039094;28;45449;-44
2022/02/02 00:16:48;;;;;;;;;10.00;8.75;;;;;12.64;64.80;101854.88;5040074;28;45267;-47
2022/02/02 00:19:36;;;;;;;;;14.25;10.00;;;;;12.66;64.83;101850.44;5039969;28;45331;-44
2022/02/02 00:22:15;;;;;;;;;9.75;9.25;;;;;12.65;64.74;101861.91;5038774;28;47438;-46
2022/02/02 00:27:19;;;;;;;;;13.25;9.25;;;;;12.65;64.72;101848.72;5040001;28;45665;-44
2022/02/02 00:29:50;;;;;;;;;14.00;10.25;;;;;12.66;64.63;101845.16;5039850;28;45307;-44
2022/02/02 00:32:42;;;;;;;;;15.75;11.00;;;;;12.65;64.86;101845.19;5039529;28;45553;-48
2022/02/02 00:35:09;;;;;;;;;10.50;8.25;;;;;12.64;64.87;101838.16;5038666;28;45249;-45
2022/02/02 00:37:34;;;;;;;;;11.25;9.25;;;;;12.61;64.84;101833.75;5038707;28;45169;-43
2022/02/02 00:39:59;;;;;;;;;12.00;10.00;;;;;12.60;64.67;101839.94;5039565;28;45247;-47
2022/02/02 00:42:29;;;;;;;;;8.25;8.00;;;;;12.61;64.91;101843.44;5039897;28;45224;-45
2022/02/02 00:44:57;;;;;;;;;12.50;10.00;;;;;12.59;64.46;101840.81;5039781;28;45391;-43
2022/02/02 00:47:24;;;;;;;;;10.75;7.25;;;;;12.59;64.79;101845.19;5039770;28;45295;-47
2022/02/02 00:49:51;;;;;;;;;11.00;9.00;;;;;12.59;64.57;101848.75;5039483;28;45304;-45
2022/02/02 00:52:17;;;;;;;;;9.75;8.25;;;;;12.59;64.77;101846.09;5038350;28;46866;-44
2022/02/02 00:54:43;;;;;;;;;12.00;9.00;;;;;12.59;64.73;101846.09;5039273;28;45449;-46
2022/02/02 00:57:09;;;;;;;;;6.75;6.50;;;;;12.58;64.57;101846.09;5039854;28;45473;-43
2022/02/02 00:59:34;;;;;;;;;7.25;7.25;;;;;12.58;64.56;101849.63;5039595;28;45334;-43
2022/02/02 01:02:00;;;;;;;;;9.75;7.75;;;;;12.57;64.48;101855.75;5040935;28;45276;-46
2022/02/02 01:04:26;;;;;;;;;12.00;10.25;;;;;12.57;64.85;101854.91;5041762;28;45403;-46
2022/02/02 01:09:40;;;;;;;;;8.25;7.00;;;;;12.58;64.83;101859.25;5042733;28;45343;-45
2022/02/02 01:13:04;;;;;;;;;11.75;10.50;;;;;12.56;64.84;101864.56;5043050;28;45220;-46
2022/02/02 01:20:29;;;;;;;;;7.75;6.75;;;;;12.57;64.58;101860.19;5043098;28;45236;-44
2022/02/02 01:28:25;;;;;;;;;10.25;9.00;;;;;12.55;64.61;101849.63;5042923;28;45220;-49
2022/02/02 01:30:52;;;;;;;;;12.25;11.00;;;;;12.54;64.44;101847.88;5042669;28;45216;-43
2022/02/02 01:33:18;;;;;;;;;8.50;8.25;;;;;12.55;64.86;101856.66;5042543;28;45407;-47
2022/02/02 01:35:43;;;;;;;;;9.00;9.00;;;;;12.53;64.43;101851.41;5042594;28;45351;-46
2022/02/02 01:38:10;;;;;;;;;8.50;7.75;;;;;12.53;64.82;101854.03;5042913;28;45459;-45
2022/02/02 01:40:47;;;;;;;;;13.50;9.75;;;;;12.49;64.51;101857.53;5042266;28;45313;-44
2022/02/02 01:43:22;;;;;;;;;9.50;9.50;;;;;12.52;64.47;101863.69;5042315;28;47101;-47
2022/02/02 01:45:52;;;;;;;;;13.00;9.00;;;;;12.52;64.60;101861.06;5042475;28;45177;-46
2022/02/02 01:51:11;;;;;;;;;9.50;9.50;;;;;12.55;64.40;101852.25;5042444;28;45553;-48
2022/02/02 01:56:14;;;;;;;;;8.75;8.00;;;;;12.53;64.58;101861.94;5042319;28;45341;-47
2022/02/02 01:59:00;;;;;;;;;9.25;8.25;;;;;12.51;64.89;101851.41;5042710;28;45342;-47
2022/02/02 02:01:26;;;;;;;;;12.00;11.25;;;;;12.48;64.65;101846.13;5041898;28;45309;-42
2022/02/02 02:03:52;;;;;;;;;7.25;7.25;;;;;12.47;64.66;101848.78;5042180;28;46362;-44
2022/02/02 02:06:18;;;;;;;;;9.50;7.00;;;;;12.46;64.43;101857.56;5042018;28;45306;-45
2022/02/02 02:08:44;;;;;;;;;11.00;7.75;;;;;12.42;64.96;101854.06;5042435;28;45303;-47
2022/02/02 02:11:16;;;;;;;;;9.00;8.75;;;;;12.42;64.84;101855.84;5040768;28;45990;-44
2022/02/02 02:16:25;;;;;;;;;10.25;9.50;;;;;12.40;64.69;101865.50;5041738;28;45267;-44
2022/02/02 02:18:52;;;;;;;;;11.00;10.00;;;;;12.39;64.40;101866.38;5042219;28;45257;-46
2022/02/02 02:21:18;;;;;;;;;9.00;8.25;;;;;12.39;64.52;101858.47;5042050;28;45233;-46
2022/02/02 02:23:46;;;;;;;;;7.75;7.75;;;;;12.38;64.62;101852.34;5041964;28;45987;-45
2022/02/02 02:26:19;;;;;;;;;12.00;10.00;;;;;12.37;64.47;101855.00;5042078;28;45286;-45
2022/02/02 02:29:02;;;;;;;;;12.00;10.25;;;;;12.35;64.86;101858.50;5040475;28;45226;-45
2022/02/02 02:55:50;;;;;;;;;11.25;11.25;;;;;12.37;64.88;101847.09;5029175;28;45395;-47
2022/02/02 02:58:40;;;;;;;;;11.25;11.25;;;;;12.38;64.74;101854.09;5041324;28;45322;-48
2022/02/02 03:30:55;;;;;;;;;16.00;14.75;;;;;12.37;65.17;101860.25;5040751;28;45377;-44
2022/02/02 03:50:18;;;;;;;;;15.50;14.25;;;;;12.29;65.52;101874.34;5039377;28;45358;-46
2022/02/02 03:55:40;;;;;;;;;21.25;19.75;;;;;12.29;65.23;101871.69;5027481;28;45399;-47
2022/02/02 04:08:26;;;;;;;;;16.75;14.25;;;;;12.29;65.11;101863.78;5040164;28;45439;-48
2022/02/02 04:10:54;;;;;;;;;14.50;13.25;;;;;12.31;65.40;101871.69;5040113;28;45257;-44
2022/02/02 04:54:15;;;;;;;;;11.00;11.00;;;;;12.32;65.05;101882.22;5039368;28;45690;-46
2022/02/02 05:06:48;;;;;;;;;16.25;14.00;;;;;12.27;65.08;101865.53;5039589;28;45355;-47
2022/02/02 05:52:25;;;;;;;;;13.75;11.00;;;;;12.00;64.78;101887.59;5041611;28;45169;-43
2022/02/02 05:54:50;;;;;;;;;12.00;11.50;;;;;12.00;64.71;101893.72;5040845;28;45489;-47
2022/02/02 05:57:15;;;;;;;;;15.75;12.25;;;;;12.00;65.13;101898.13;5042285;28;45149;-47
2022/02/02 05:59:42;;;;;;;;;16.25;12.75;;;;;11.99;65.32;101906.91;5042229;28;45247;-45
2022/02/02 06:02:13;;;;;;;;;15.00;14.00;;;;;12.00;65.10;101914.81;5042476;28;45326;-46
2022/02/02 06:04:44;;;;;;;;;14.25;10.50;;;;;12.00;64.81;101914.81;5042009;28;45408;-47
2022/02/02 06:07:10;;;;;;;;;12.50;11.75;;;;;12.00;64.83;101920.06;5042324;28;45453;-45
2022/02/02 06:09:39;;;;;;;;;12.50;11.75;;;;;11.98;65.02;101916.56;5041816;28;45379;-44
2022/02/02 06:12:06;;;;;;;;;10.25;8.50;;;;;12.00;64.80;101920.06;5042296;28;45224;-47
2022/02/02 06:14:32;;;;;;;;;11.75;9.25;;;;;12.00;64.83;101916.56;5042021;28;45228;-49
2022/02/02 06:17:05;;;;;;;;;13.50;9.25;;;;;12.00;64.96;101921.84;5040554;28;46217;-43
2022/02/02 06:19:31;;;;;;;;;14.50;12.25;;;;;11.95;65.08;101924.44;5041994;28;45239;-47
2022/02/02 06:22:02;;;;;;;;;10.00;9.00;;;;;11.97;65.13;101933.22;5042254;28;45223;-45
2022/02/02 06:24:32;;;;;;;;;9.75;9.50;;;;;11.97;65.02;101935.00;5041879;28;45374;-42
2022/02/02 06:27:25;;;;;;;;;8.75;6.00;;;;;11.98;65.21;101940.25;5041862;28;45356;-45
2022/02/02 06:29:57;;;;;;;;;10.00;7.50;;;;;11.99;65.07;101936.75;5037418;28;45522;-49
2022/02/02 06:32:26;;;;;;;;;9.75;7.75;;;;;12.00;65.00;101938.50;5041748;28;45350;-45
2022/02/02 06:35:01;;;;;;;;;9.75;7.00;;;;;12.02;65.22;101939.41;5042070;28;45285;-44
2022/02/02 06:37:28;;;;;;;;;6.50;6.50;;;;;12.02;65.00;101934.13;5040310;28;47131;-44
2022/02/02 06:39:54;;;;;;;;;6.75;5.25;;;;;12.05;65.23;101940.25;5041373;28;45280;-46
2022/02/02 06:42:20;;;;;;;;;7.75;7.75;;;;;12.05;65.35;101948.16;5041759;28;45422;-43
2022/02/02 06:44:46;;;;;;;;;7.75;6.25;;;;;12.02;65.30;101941.13;5041618;28;45347;-44
2022/02/02 06:47:12;;;;;;;;;9.75;8.75;;;;;12.06;64.89;101945.53;5041367;28;45374;-47
2022/02/02 06:49:40;;;;;;;;;4.75;4.25;;;;;12.08;65.19;101943.78;5041289;28;45162;-45
2022/02/02 06:52:22;;;;;;;;;5.50;4.00;;;;;12.12;65.20;101952.56;5041737;28;45315;-45
2022/02/02 06:55:01;;;;;;;;;7.50;6.75;;;;;12.13;65.08;101946.41;5041280;28;45411;-44
2022/02/02 06:57:49;;;;;;;;;6.25;6.25;;;;;12.14;65.10;101945.53;5041387;28;46416;-46
2022/02/02 07:02:55;;;;;;;;;6.50;5.00;;;;;12.16;64.89;101957.81;5041224;28;45341;-48
2022/02/02 07:05:36;;;;;;;;;7.00;5.00;;;;;12.14;65.01;101949.03;5041433;28;46607;-45
2022/02/02 07:21:45;;;;;;;;;6.00;5.00;;;;;12.15;64.94;101969.25;5041093;28;45537;-44
2022/02/02 07:37:33;;;;;;;;;6.25;4.00;;;;;12.14;65.41;101992.97;5040798;28;45173;-47
2022/02/02 07:40:02;;;;;;;;;6.25;5.00;;;;;12.13;65.15;101993.84;5040368;28;46155;-44
2022/02/02 07:42:29;;;;;;;;;7.00;5.00;;;;;12.11;65.33;101993.84;5040689;28;45248;-45
2022/02/02 07:45:02;;;;;;;;;5.50;3.00;;;;;12.12;65.40;101992.06;5040990;28;46305;-46
2022/02/02 07:47:27;;;;;;;;;5.75;5.75;;;;;12.13;65.04;101999.09;5039181;28;45272;-44
2022/02/02 07:49:56;;;;;;;;;3.00;3.00;;;;;12.09;65.21;101998.22;5040338;28;46920;-44
2022/02/02 07:52:26;;;;;;;;;5.50;5.50;;;;;12.12;65.20;102002.63;5040664;28;45239;-45
2022/02/02 07:54:54;;;;;;;;;4.50;3.25;;;;;12.12;65.05;102000.84;5040488;28;45368;-47
2022/02/02 07:57:26;;;;;;;;;4.75;4.75;;;;;12.14;65.33;102003.50;5040738;28;45245;-46
2022/02/02 07:59:59;;;;;;;;;5.00;5.00;;;;;12.15;65.43;102002.59;5040263;28;46327;-47
2022/02/02 08:05:12;;;;;;;;;6.50;6.50;;;;;12.16;65.49;101999.09;5040506;28;45410;-47
2022/02/02 08:08:11;;;;;;;;;6.75;5.00;;;;;12.14;65.22;102001.75;5040300;28;45505;-44
2022/02/02 08:10:25;;;;;;;;;4.25;3.75;;;;;12.16;65.53;102001.72;5038577;28;45915;-47
2022/02/02 08:12:56;;;;;;;;;6.50;5.25;;;;;12.18;65.21;102007.88;5040205;28;45228;-43
2022/02/02 08:15:25;;;;;;;;;5.75;4.25;;;;;12.19;65.20;102007.88;5040273;28;45339;-47
2022/02/02 08:17:52;;;;;;;;;6.75;3.75;;;;;12.21;65.17;102002.59;5039817;28;45173;-48
2022/02/02 08:20:18;;;;;;;;;4.50;2.00;;;;;12.22;65.16;102012.28;5040134;28;46048;-49
2022/02/02 08:22:44;;;;;;;;;5.00;4.00;;;;;12.22;65.48;102014.03;5039962;28;45366;-44
2022/02/02 08:25:12;;;;;;;;;4.75;2.75;;;;;12.24;65.36;102007.00;5040385;28;45501;-46
2022/02/02 08:27:40;;;;;;;;;3.00;3.00;;;;;12.25;65.54;102014.91;5038794;28;45506;-47
2022/02/02 08:30:09;;;;;;;;;3.75;3.75;;;;;12.25;65.45;102017.56;5039946;28;45562;-46
2022/02/02 08:32:41;;;;;;;;;5.00;5.00;;;;;12.26;65.36;102021.91;5039583;28;45329;-45
2022/02/02 08:35:07;;;;;;;;;3.25;3.25;;;;;12.24;65.23;102023.69;5040038;28;45305;-46
2022/02/02 08:37:35;;;;;;;;;6.00;6.00;;;;;12.22;65.51;102028.09;5040040;28;45280;-44
2022/02/02 08:40:19;;;;;;;;;4.00;3.00;;;;;12.22;65.26;102022.81;5038157;28;47294;-45
2022/02/02 08:42:44;;;;;;;;;4.00;3.50;;;;;12.25;65.61;102027.19;5039862;28;45354;-46
2022/02/02 08:45:21;;;;;;;;;5.00;5.00;;;;;12.25;65.36;102028.09;5039821;28;45354;-46
2022/02/02 08:47:54;;;;;;;;;5.00;5.00;;;;;12.26;65.61;102026.31;5039733;28;45323;-47
2022/02/02 08:50:27;;;;;;;;;5.00;5.00;;;;;12.25;65.28;102028.09;5039542;28;47037;-44
2022/02/02 08:52:56;;;;;;;;;4.00;4.00;;;;;12.27;65.44;102033.38;5039668;28;45480;-46
2022/02/02 08:55:37;;;;;;;;;4.00;4.00;;;;;12.27;65.37;102028.94;5039603;28;45374;-47
2022/02/02 08:58:21;;;;;;;;;4.00;3.00;;;;;12.29;65.04;102029.84;5039674;28;45285;-43
2022/02/02 09:00:49;;;;;;;;;4.00;4.00;;;;;12.27;65.26;102013.13;5039362;28;47049;-44
2022/02/02 09:05:58;;;;;;;;;7.50;5.50;;;;;12.33;64.94;102025.44;5039659;28;45324;-47
2022/02/02 09:08:28;;;;;;;;;3.00;3.00;;;;;12.34;65.11;102014.91;5038253;28;45509;-46
2022/02/02 09:25:04;;;;;;;;;7.00;7.00;;;;;12.41;65.41;102021.03;5042747;28;45350;-47
2022/02/02 09:35:41;;;;;;;;;5.00;5.00;;;;;12.44;65.16;102018.41;5041638;28;45252;-43
2022/02/02 09:38:07;;;;;;;;;8.25;6.00;;;;;12.45;65.10;102032.44;5042890;28;45304;-45
2022/02/02 09:43:18;;;;;;;;;7.25;6.75;;;;;12.45;64.88;102019.28;5042802;28;45306;-46
2022/02/02 09:45:46;;;;;;;;;11.50;8.00;;;;;12.45;65.19;102025.44;5042384;28;45465;-45
2022/02/02 09:48:22;;;;;;;;;5.75;4.75;;;;;12.46;64.97;102016.63;5042702;28;45326;-47
2022/02/02 09:50:53;;;;;;;;;6.75;5.50;;;;;12.46;64.80;102013.97;5041176;28;45296;-48
2022/02/02 09:53:32;;;;;;;;;5.00;5.00;;;;;12.50;64.85;102013.13;5042019;28;46277;-44
2022/02/02 09:56:23;;;;;;;;;5.50;4.25;;;;;12.54;65.18;102014.00;5042526;28;45318;-45
2022/02/02 10:02:33;;;;;;;;;3.50;3.50;;;;;12.61;64.83;102023.63;5037159;28;45565;-45
2022/02/02 10:15:30;;;;;;;;;7.25;6.00;;;;;12.75;64.58;102047.34;5042079;28;46154;-45
2022/02/02 10:18:02;;;;;;;;;7.00;6.00;;;;;12.78;64.94;102046.44;5041792;28;45438;-44
2022/02/02 10:20:29;;;;;;;;;2.00;2.00;;;;;12.78;64.52;102043.81;5041028;28;45286;-45
2022/02/02 10:22:57;;;;;;;;;4.00;4.00;;;;;12.81;64.67;102046.44;5041887;28;45276;-47
2022/02/02 10:25:35;;;;;;;;;4.25;3.00;;;;;12.82;64.85;102043.81;5041718;28;47239;-45
2022/02/02 10:28:17;;;;;;;;;4.50;3.50;;;;;12.84;64.75;102033.25;5042072;28;45239;-45
2022/02/02 10:30:49;;;;;;;;;3.75;3.75;;;;;12.83;64.47;102035.00;5041750;28;45315;-45
2022/02/02 10:33:23;;;;;;;;;3.50;3.50;;;;;12.86;64.30;102031.50;5040674;28;45390;-44
2022/02/02 10:36:15;;;;;;;;;5.75;5.00;;;;;12.87;64.91;102041.16;5041564;28;46161;-47
2022/02/02 10:38:50;;;;;;;;;7.00;5.50;;;;;12.89;64.62;102044.66;5041735;28;45512;-44
2022/02/02 10:43:57;;;;;;;;;6.50;6.50;;;;;12.88;64.62;102061.38;5041565;28;45468;-47
2022/02/02 10:47:00;;;;;;;;;5.50;5.25;;;;;12.87;64.23;102057.00;5041440;28;45339;-45
2022/02/02 10:52:23;;;;;;;;;4.75;4.00;;;;;12.88;64.41;102064.03;5041652;28;45260;-49
2022/02/02 10:57:36;;;;;;;;;3.75;3.50;;;;;12.83;64.15;102063.16;5040481;28;45935;-44
2022/02/02 11:08:18;;;;;;;;;4.00;4.00;;;;;12.84;64.06;102041.16;5059068;28;45442;-44
2022/02/02 11:10:43;;;;;;;;;2.25;2.25;;;;;12.83;64.35;102056.13;5060276;28;45354;-46
2022/02/02 11:13:12;;;;;;;;;6.00;5.00;;;;;12.85;64.07;102048.19;5061497;28;45324;-44
2022/02/02 11:15:40;;;;;;;;;7.25;5.00;;;;;12.87;64.10;102043.81;5059887;27;45436;-44
2022/02/02 11:18:27;;;;;;;;;8.00;6.00;;;;;12.87;64.01;102048.19;5061276;28;46178;-44
2022/02/02 11:20:53;;;;;;;;;6.00;6.00;;;;;12.84;64.12;102049.97;5061132;28;45329;-43
2022/02/02 11:23:21;;;;;;;;;8.25;7.25;;;;;12.89;63.99;102057.84;5061407;28;45348;-44
2022/02/02 11:25:51;;;;;;;;;7.00;7.00;;;;;12.87;64.26;102057.00;5059602;28;45546;-43
2022/02/02 11:28:26;;;;;;;;;6.75;6.00;;;;;12.90;64.10;102056.09;5059572;27;45460;-45
2022/02/02 11:31:02;;;;;;;;;6.00;6.00;;;;;12.86;64.06;102057.88;5059443;28;45817;-44
2022/02/02 11:33:28;;;;;;;;;10.25;7.00;;;;;12.84;64.00;102052.59;5059732;28;45410;-43
2022/02/02 11:35:57;;;;;;;;;7.25;6.50;;;;;12.84;63.64;102056.97;5060906;28;45317;-45
2022/02/02 11:38:28;;;;;;;;;11.50;9.00;;;;;12.85;63.85;102058.75;5061147;28;46370;-44
2022/02/02 11:41:12;;;;;;;;;10.00;8.00;;;;;12.82;63.82;102056.13;5060506;28;45397;-42
2022/02/02 11:47:19;;;;;;;;;6.25;6.25;;;;;12.78;63.87;102052.63;5060403;28;45332;-45
2022/02/02 11:49:57;;;;;;;;;8.25;5.75;;;;;12.78;63.92;102067.53;5060256;28;45430;-42
2022/02/02 11:52:44;;;;;;;;;6.50;4.25;;;;;12.78;63.89;102062.25;5053725;28;45314;-45
2022/02/02 11:55:12;;;;;;;;;5.00;5.00;;;;;12.78;64.21;102062.25;5038548;28;45305;-46
2022/02/02 11:57:57;;;;;;;;;4.25;4.25;;;;;12.79;64.27;102064.94;5040798;28;45216;-42
2022/02/02 12:03:21;;;;;;;;;5.00;5.00;;;;;12.81;63.78;102052.59;5040403;28;45264;-43
2022/02/02 12:11:20;;;;;;;;;2.50;2.50;;;;;12.85;63.58;102056.09;5040260;28;45449;-43
2022/02/02 12:56:58;;;;;;;;;3.00;1.25;;;;;12.76;63.60;102021.84;5040699;28;45287;-44
2022/02/02 13:02:14;;;;;;;;;4.75;4.75;;;;;12.79;63.63;102037.66;5042959;28;45453;-45
2022/02/02 13:04:42;;;;;;;;;6.00;3.50;;;;;12.77;63.79;102040.31;5042712;28;45366;-44
2022/02/02 13:07:09;;;;;;;;;4.25;3.75;;;;;12.78;63.40;102035.88;5041959;28;45323;-44
2022/02/02 13:09:36;;;;;;;;;6.00;5.00;;;;;12.76;63.48;102024.50;5042928;28;45536;-47
2022/02/02 13:12:23;;;;;;;;;4.50;3.75;;;;;12.77;63.92;102024.47;5043268;28;45189;-43
2022/02/02 13:17:46;;;;;;;;;3.75;3.50;;;;;12.79;63.34;102020.09;5042628;28;45419;-44
2022/02/02 13:20:15;;;;;;;;;3.00;3.00;;;;;12.81;63.52;102028.00;5043208;28;45358;-46
2022/02/02 13:23:01;;;;;;;;;2.00;2.00;;;;;12.80;63.30;102042.94;5042852;28;45454;-48
2022/02/02 13:25:31;;;;;;;;;1.00;1.00;;;;;12.80;63.34;102031.50;5042579;28;46166;-45
2022/02/02 13:27:59;;;;;;;;;2.50;2.50;;;;;12.77;63.59;102028.88;5042976;28;45288;-45
2022/02/02 13:30:38;;;;;;;;;1.00;1.00;;;;;12.79;63.55;102033.28;5042530;28;45434;-44
2022/02/02 13:33:32;;;;;;;;;1.00;1.00;;;;;12.80;63.26;102028.88;5042868;28;45392;-47
2022/02/02 13:36:19;;;;;;;;;1.00;1.00;;;;;12.81;63.06;102022.72;5042611;28;46944;-46
2022/02/02 13:44:36;;;;;;;;;2.25;1.25;;;;;12.83;63.31;102029.75;5042519;28;45467;-45
2022/02/02 13:50:12;;;;;;;;;2.00;2.00;;;;;12.90;63.27;102029.72;5042328;28;45507;-43
2022/02/02 13:52:53;;;;;;;;;2.75;2.00;;;;;12.94;63.41;102027.06;5042485;28;45216;-48
2022/02/02 13:55:44;;;;;;;;;1.00;1.00;;;;;12.99;63.11;102032.31;5042227;28;45462;-44
2022/02/02 13:58:37;;;;;;;;;3.25;3.00;;;;;13.05;63.43;102034.94;5042130;28;45387;-46
2022/02/02 14:01:32;;;;;;;;;3.75;2.50;;;;;13.12;63.29;102025.25;5040833;28;45346;-44
2022/02/02 14:06:48;;;;;;;;;4.00;3.00;;;;;13.22;63.35;102032.22;5042170;28;45320;-44
2022/02/02 14:09:23;;;;;;;;;4.25;4.25;;;;;13.24;62.95;102022.53;5040297;27;45331;-44
2022/02/02 14:33:21;;;;;;;;;2.50;1.50;;;;;13.51;62.55;102006.56;5041916;28;45232;-44
2022/02/02 14:35:48;;;;;;;;;1.00;1.00;;;;;13.50;62.79;102013.63;5041806;28;45360;-45
2022/02/02 14:38:16;;;;;;;;;2.00;2.00;;;;;13.46;62.62;102020.69;5041712;28;45444;-44
2022/02/02 14:43:10;;;;;;;;;1.50;1.50;;;;;13.45;62.63;102028.63;5041892;28;45289;-47
2022/02/02 14:45:40;;;;;;;;;2.00;2.00;;;;;13.45;62.56;102034.78;5041455;28;45502;-47
2022/02/02 14:48:20;;;;;;;;;2.00;1.50;;;;;13.44;62.46;102046.22;5041545;28;45460;-44
2022/02/02 14:53:31;;;;;;;;;1.00;1.00;;;;;13.41;62.08;102043.59;5041272;28;45384;-47
2022/02/02 15:31:37;;;;;;;;;0.00;0.00;;;;;13.12;61.99;102041.94;5040788;28;45466;-43
2022/02/02 15:34:06;;;;;;;;;0.00;0.00;;;;;13.09;61.66;102043.72;5040741;28;45269;-44
2022/02/02 15:39:06;;;;;;;;;1.00;1.00;;;;;13.07;61.67;102042.84;5039459;28;45316;-46
2022/02/02 15:41:40;;;;;;;;;3.00;1.00;;;;;13.05;61.90;102036.69;5040456;28;45218;-45
2022/02/02 16:05:36;;;;;;;;;0.75;0.75;;;;;12.87;61.69;102020.06;5027408;28;45230;-47
2022/02/02 16:08:06;;;;;;;;;2.00;1.25;;;;;12.83;61.33;102013.03;5039932;28;45444;-45
2022/02/02 16:37:09;;;;;;;;;1.75;1.75;;;;;12.60;61.25;102015.72;5039615;28;45991;-44
2022/02/02 16:39:46;;;;;;;;;0.25;0.25;;;;;12.59;61.11;102009.59;5038405;28;45332;-44
2022/02/02 16:44:55;;;;;;;;;1.00;1.00;;;;;12.60;61.60;102005.19;5039759;28;45302;-44
2022/02/02 16:47:22;;;;;;;;;2.00;2.00;;;;;12.57;61.26;101992.03;5039612;28;45299;-43
2022/02/02 16:49:48;;;;;;;;;3.75;2.75;;;;;12.57;61.32;102006.06;5039876;28;45339;-43
2022/02/02 16:52:15;;;;;;;;;3.00;3.00;;;;;12.58;61.36;102004.28;5039812;28;45158;-44
2022/02/02 16:54:43;;;;;;;;;8.00;6.25;;;;;12.60;61.07;102000.81;5039623;28;45224;-43
2022/02/02 17:34:52;;;;;;;;;2.75;2.75;;;;;12.25;60.77;101996.47;5039406;28;45303;-45
2022/02/02 17:40:19;;;;;;;;;4.00;3.75;;;;;12.20;60.81;101998.22;5027504;28;46034;-50
2022/02/02 18:02:46;;;;;;;;;5.25;4.00;;;;;12.12;60.73;102010.53;5062209;28;45854;-46
2022/02/02 18:21:05;;;;;;;;;4.25;3.75;;;;;12.14;60.51;102030.72;5041999;28;45269;-46
2022/02/02 18:23:42;;;;;;;;;4.00;4.00;;;;;12.13;60.51;102028.97;5041856;28;46215;-50
2022/02/02 18:28:50;;;;;;;;;9.00;9.00;;;;;12.12;60.62;102028.97;5041962;28;45274;-47
2022/02/02 18:47:10;;;;;;;;;5.00;4.25;;;;;12.13;60.59;101999.97;5041175;28;45224;-47
2022/02/02 19:38:19;;;;;;;;;4.00;4.00;;;;;12.05;60.07;102011.41;5040979;28;45323;-48
2022/02/02 19:57:22;;;;;;;;;4.25;4.25;;;;;11.98;59.87;102010.53;5040625;28;45177;-44
2022/02/02 20:07:51;;;;;;;;;8.50;6.00;;;;;11.96;59.89;101993.84;5040394;28;45702;-43
2022/02/02 20:12:50;;;;;;;;;6.00;4.75;;;;;11.96;59.80;102000.00;5040205;28;45322;-46
2022/02/02 20:15:15;;;;;;;;;5.00;4.00;;;;;11.96;59.67;102007.91;5040336;28;45307;-45
2022/02/02 20:17:43;;;;;;;;;6.00;3.50;;;;;11.96;59.68;102007.00;5040197;28;45215;-44
2022/02/02 20:20:18;;;;;;;;;6.25;5.00;;;;;11.93;59.66;102013.13;5040294;28;46318;-45
2022/02/02 20:22:44;;;;;;;;;3.50;3.50;;;;;11.90;59.65;102012.22;5038905;28;45873;-46
2022/02/02 20:25:11;;;;;;;;;5.50;4.50;;;;;11.90;59.72;102026.31;5040256;28;45331;-45
2022/02/02 20:27:38;;;;;;;;;6.50;5.00;;;;;11.89;59.62;102023.66;5038729;28;45419;-44
2022/02/02 20:30:10;;;;;;;;;5.00;4.00;;;;;11.84;59.70;102023.66;5038413;27;45361;-45
2022/02/02 20:32:35;;;;;;;;;5.75;4.50;;;;;11.83;59.64;102028.03;5039904;28;45431;-46
2022/02/02 20:35:01;;;;;;;;;4.75;3.75;;;;;11.83;59.71;102017.50;5040254;28;45348;-47
2022/02/02 20:37:28;;;;;;;;;4.00;4.00;;;;;11.82;59.86;102028.94;5039975;28;46163;-45
2022/02/02 20:40:05;;;;;;;;;4.25;4.25;;;;;11.80;59.53;102024.53;5039642;28;47065;-44
2022/02/02 20:43:18;;;;;;;;;4.75;2.75;;;;;11.80;59.41;102029.81;5040110;28;45255;-45
2022/02/02 21:07:24;;;;;;;;;5.25;3.75;;;;;11.71;59.29;102013.09;5039680;28;45433;-46
2022/02/02 21:09:34;;;;;;;;;4.75;4.75;;;;;11.71;59.32;102015.75;5035169;28;45441;-46
2022/02/02 21:14:37;;;;;;;;;8.00;5.25;;;;;11.73;59.36;102015.72;5039452;28;45312;-45
2022/02/02 21:17:05;;;;;;;;;5.50;4.50;;;;;11.75;59.17;102014.00;5038285;28;45459;-45
2022/02/02 21:19:39;;;;;;;;;5.50;5.00;;;;;11.77;59.24;102014.84;5042831;28;45491;-45
2022/02/02 21:22:05;;;;;;;;;4.75;4.75;;;;;11.80;58.97;102016.66;5042995;28;46629;-44
2022/02/02 21:24:47;;;;;;;;;6.00;6.00;;;;;11.79;59.43;102018.38;5042775;28;45169;-44
2022/02/02 21:29:38;;;;;;;;;6.25;5.25;;;;;11.82;59.31;102014.88;5042875;28;45513;-45
2022/02/02 21:32:04;;;;;;;;;5.25;5.25;;;;;11.82;59.32;102017.50;5041204;28;47618;-48
2022/02/02 21:34:30;;;;;;;;;5.50;5.00;;;;;11.81;59.40;102008.72;5042974;28;45332;-46
2022/02/02 21:37:00;;;;;;;;;7.25;7.00;;;;;11.78;59.31;101997.31;5042837;28;45228;-44
2022/02/02 21:39:28;;;;;;;;;9.75;6.75;;;;;11.78;59.30;102003.44;5042901;28;45338;-44
2022/02/02 21:41:54;;;;;;;;;9.00;9.00;;;;;11.80;59.28;102003.47;5042375;28;46155;-46
2022/02/02 21:44:20;;;;;;;;;12.50;11.25;;;;;11.80;59.34;102008.75;5042695;28;45283;-46
2022/02/02 21:46:46;;;;;;;;;13.50;11.75;;;;;11.77;59.58;102001.69;5042508;28;45308;-45
2022/02/02 21:49:17;;;;;;;;;13.25;11.75;;;;;11.78;59.63;101995.53;5042515;28;45449;-44
2022/02/02 21:51:59;;;;;;;;;17.00;15.25;;;;;11.81;59.70;102002.56;5042475;28;46318;-45
2022/02/02 21:54:24;;;;;;;;;16.25;12.00;;;;;11.80;59.66;101990.31;5034131;28;45412;-45
2022/02/02 21:56:49;;;;;;;;;16.25;15.75;;;;;11.79;59.56;102005.22;5042517;28;45420;-45
2022/02/02 21:59:15;;;;;;;;;15.50;15.00;;;;;11.80;59.97;101996.44;5042767;28;45295;-44
2022/02/02 22:01:40;;;;;;;;;14.75;14.25;;;;;11.78;59.90;101984.16;5042076;28;47166;-44
2022/02/02 22:04:06;;;;;;;;;19.75;18.75;;;;;11.80;59.63;101985.03;5042351;28;45615;-45
2022/02/02 22:06:31;;;;;;;;;21.50;18.25;;;;;11.80;60.05;101993.81;5042438;28;45263;-44
2022/02/02 22:08:56;;;;;;;;;22.50;19.50;;;;;11.80;59.96;101998.22;5042214;28;46162;-44
2022/02/02 22:11:23;;;;;;;;;19.00;17.25;;;;;11.77;60.19;101985.88;5042235;28;45295;-44
2022/02/02 22:13:58;;;;;;;;;13.75;13.75;;;;;11.78;59.89;101986.78;5042400;28;45251;-44
2022/02/02 22:16:23;;;;;;;;;18.75;18.00;;;;;11.80;59.95;101982.41;5042057;28;45411;-45
2022/02/02 22:18:50;;;;;;;;;18.00;17.75;;;;;11.80;60.04;101985.03;5042037;28;45470;-45
2022/02/02 22:21:17;;;;;;;;;18.25;16.75;;;;;11.79;59.96;101986.78;5042084;28;46050;-48
2022/02/02 22:23:43;;;;;;;;;18.75;14.00;;;;;11.74;60.37;101977.13;5042154;28;45305;-44
2022/02/02 22:26:09;;;;;;;;;15.75;15.25;;;;;11.76;60.14;101970.97;5041908;28;45504;-46
2022/02/02 22:28:35;;;;;;;;;16.75;14.00;;;;;11.74;60.31;101967.47;5041940;28;45327;-45
2022/02/02 22:31:00;;;;;;;;;10.50;10.25;;;;;11.74;60.34;101969.22;5040154;28;46164;-44
2022/02/02 22:33:26;;;;;;;;;10.75;9.75;;;;;11.69;60.26;101959.56;5041984;28;45402;-43
2022/02/02 22:35:51;;;;;;;;;11.25;10.00;;;;;11.69;60.48;101962.19;5041953;28;45241;-44
2022/02/02 22:38:18;;;;;;;;;12.75;11.50;;;;;11.70;60.10;101966.56;5041869;28;45359;-41
2022/02/02 22:40:43;;;;;;;;;12.00;11.00;;;;;11.69;60.23;101977.97;5041367;28;46020;-43
2022/02/02 22:43:11;;;;;;;;;11.75;11.50;;;;;11.67;60.16;101974.50;5041824;28;45177;-43
2022/02/02 22:45:40;;;;;;;;;9.00;8.00;;;;;11.69;60.02;101971.84;5041688;28;45501;-45
2022/02/02 22:48:06;;;;;;;;;16.75;12.25;;;;;11.65;60.26;101976.22;5041671;28;45370;-45
2022/02/02 22:50:31;;;;;;;;;9.50;8.75;;;;;11.65;60.01;101973.59;5041312;28;46019;-43
2022/02/02 22:52:58;;;;;;;;;10.25;10.00;;;;;11.64;60.02;101976.25;5040431;28;45370;-47
2022/02/02 22:55:24;;;;;;;;;10.50;9.50;;;;;11.64;60.05;101984.13;5041600;28;45192;-43
2022/02/02 22:57:49;;;;;;;;;13.25;10.50;;;;;11.61;60.22;101974.47;5041455;28;45541;-44
2022/02/02 23:00:18;;;;;;;;;9.75;7.50;;;;;11.59;60.23;101968.31;5041384;28;45287;-45
2022/02/02 23:05:19;;;;;;;;;10.75;10.00;;;;;11.57;59.97;101959.53;5041609;28;45213;-45